メインページ
METAR-TAF:

METAR-TAF

空港 :

Pincher Creek, アルバータ州, カナダ

緯度: 49-31N, 経度: 113-59W, 海抜: 1190m

現時点の気象観測

当レポートは40分前の02:00(UTC)に作成
西の風 14kt
気温 4°C
湿度 70%
気圧 1009 hPa
視程: 14.5km
晴天

METAR: CZPC 070200Z AUTO 26014KT 9SM CLR 04/M01 A2979 RMK SLP112

時間: 19:40 (02:40 UTC)


TAF: 見つかりません

4,000以上の空港の気象観測と天気予報(METAR報とTAF報)

利用可能な観測所は地図上に黄色い丸と赤い丸で示す。

丸の上にカーソルを重ねると観測所名を参照できる。

次にクリックすると気象観測と天気予報を参照できる。

マップの切り替え:黒色「×」印の緑ボタンをクリックして拡大、「-」印の緑ボタンをクリックして縮小、緑色の三角印をクリックして隣りの地図に切り替え


METAR-TAF: